sensor_id;sensor_type;location;lat;lon;timestamp;pressure;altitude;pressure_sealevel;temperature;humidity
38718;BME280;24468;52.128;9.278;2023-07-29T00:01:11;99895.81;;;20.96;100.00
38718;BME280;24468;52.128;9.278;2023-07-29T00:03:37;99887.88;;;20.93;100.00
38718;BME280;24468;52.128;9.278;2023-07-29T00:06:02;99890.50;;;20.84;100.00
38718;BME280;24468;52.128;9.278;2023-07-29T00:08:28;99892.22;;;20.85;100.00
38718;BME280;24468;52.128;9.278;2023-07-29T00:10:53;99896.56;;;20.78;100.00
38718;BME280;24468;52.128;9.278;2023-07-29T00:13:19;99893.69;;;20.80;100.00
38718;BME280;24468;52.128;9.278;2023-07-29T00:15:44;99888.09;;;20.72;100.00
38718;BME280;24468;52.128;9.278;2023-07-29T00:18:10;99882.63;;;20.62;100.00
38718;BME280;24468;52.128;9.278;2023-07-29T00:20:35;99875.28;;;20.62;100.00
38718;BME280;24468;52.128;9.278;2023-07-29T00:23:01;99879.00;;;20.71;100.00
38718;BME280;24468;52.128;9.278;2023-07-29T00:25:28;99876.81;;;20.75;100.00
38718;BME280;24468;52.128;9.278;2023-07-29T00:27:56;99877.69;;;20.75;100.00
38718;BME280;24468;52.128;9.278;2023-07-29T00:30:22;99893.69;;;20.80;100.00
38718;BME280;24468;52.128;9.278;2023-07-29T00:32:47;99895.56;;;20.79;100.00
38718;BME280;24468;52.128;9.278;2023-07-29T00:35:13;99890.66;;;20.73;100.00
38718;BME280;24468;52.128;9.278;2023-07-29T00:37:38;99892.72;;;20.71;100.00
38718;BME280;24468;52.128;9.278;2023-07-29T00:40:15;99891.38;;;20.75;100.00
38718;BME280;24468;52.128;9.278;2023-07-29T00:42:41;99887.66;;;20.76;100.00
38718;BME280;24468;52.128;9.278;2023-07-29T00:45:09;99890.53;;;20.75;100.00
38718;BME280;24468;52.128;9.278;2023-07-29T00:47:34;99888.94;;;20.72;100.00
38718;BME280;24468;52.128;9.278;2023-07-29T00:50:00;99882.44;;;20.73;100.00
38718;BME280;24468;52.128;9.278;2023-07-29T00:52:26;99875.25;;;20.72;100.00
38718;BME280;24468;52.128;9.278;2023-07-29T00:54:52;99875.00;;;20.65;100.00
38718;BME280;24468;52.128;9.278;2023-07-29T00:57:18;99875.56;;;20.69;100.00
38718;BME280;24468;52.128;9.278;2023-07-29T00:59:44;99871.94;;;20.69;100.00
38718;BME280;24468;52.128;9.278;2023-07-29T01:02:10;99873.53;;;20.71;100.00
38718;BME280;24468;52.128;9.278;2023-07-29T01:04:35;99867.31;;;20.69;100.00
38718;BME280;24468;52.128;9.278;2023-07-29T01:10:15;99879.03;;;20.61;100.00
38718;BME280;24468;52.128;9.278;2023-07-29T01:15:43;99859.53;;;20.64;100.00
38718;BME280;24468;52.128;9.278;2023-07-29T01:18:26;99859.41;;;20.56;100.00
38718;BME280;24468;52.128;9.278;2023-07-29T01:20:57;99859.13;;;20.59;100.00
38718;BME280;24468;52.128;9.278;2023-07-29T01:23:31;99857.25;;;20.50;100.00
38718;BME280;24468;52.128;9.278;2023-07-29T01:25:57;99864.50;;;20.32;100.00
38718;BME280;24468;52.128;9.278;2023-07-29T01:28:23;99864.53;;;20.22;100.00
38718;BME280;24468;52.128;9.278;2023-07-29T01:30:52;99861.19;;;20.38;100.00
38718;BME280;24468;52.128;9.278;2023-07-29T01:33:26;99855.28;;;20.33;100.00
38718;BME280;24468;52.128;9.278;2023-07-29T01:36:07;99855.53;;;20.39;100.00
38718;BME280;24468;52.128;9.278;2023-07-29T01:41:07;99850.91;;;20.50;100.00
38718;BME280;24468;52.128;9.278;2023-07-29T01:43:33;99861.72;;;20.51;100.00
38718;BME280;24468;52.128;9.278;2023-07-29T01:46:00;99850.63;;;20.43;100.00
38718;BME280;24468;52.128;9.278;2023-07-29T01:50:52;99852.97;;;20.28;100.00
38718;BME280;24468;52.128;9.278;2023-07-29T01:53:18;99848.81;;;20.14;100.00
38718;BME280;24468;52.128;9.278;2023-07-29T01:55:44;99852.84;;;20.30;100.00
38718;BME280;24468;52.128;9.278;2023-07-29T01:58:11;99846.09;;;20.24;100.00
38718;BME280;24468;52.128;9.278;2023-07-29T02:00:36;99845.63;;;20.29;100.00
38718;BME280;24468;52.128;9.278;2023-07-29T02:03:02;99846.50;;;20.19;100.00
38718;BME280;24468;52.128;9.278;2023-07-29T02:05:28;99846.22;;;20.13;100.00
38718;BME280;24468;52.128;9.278;2023-07-29T02:07:53;99841.50;;;19.76;100.00
38718;BME280;24468;52.128;9.278;2023-07-29T02:10:19;99849.25;;;20.10;100.00
38718;BME280;24468;52.128;9.278;2023-07-29T02:12:44;99845.34;;;20.22;100.00
38718;BME280;24468;52.128;9.278;2023-07-29T02:15:10;99840.16;;;20.29;100.00
38718;BME280;24468;52.128;9.278;2023-07-29T02:17:36;99836.66;;;20.36;100.00
38718;BME280;24468;52.128;9.278;2023-07-29T02:20:03;99851.38;;;20.35;100.00
38718;BME280;24468;52.128;9.278;2023-07-29T02:22:29;99849.34;;;20.37;100.00
38718;BME280;24468;52.128;9.278;2023-07-29T02:24:55;99844.00;;;20.46;100.00
38718;BME280;24468;52.128;9.278;2023-07-29T02:27:20;99845.56;;;20.48;100.00
38718;BME280;24468;52.128;9.278;2023-07-29T02:29:46;99856.84;;;20.55;100.00
38718;BME280;24468;52.128;9.278;2023-07-29T02:32:12;99846.84;;;20.63;100.00
38718;BME280;24468;52.128;9.278;2023-07-29T02:34:37;99850.16;;;20.67;100.00
38718;BME280;24468;52.128;9.278;2023-07-29T02:37:03;99848.28;;;20.68;100.00
38718;BME280;24468;52.128;9.278;2023-07-29T02:39:28;99841.00;;;20.29;100.00
38718;BME280;24468;52.128;9.278;2023-07-29T02:41:54;99842.78;;;20.11;100.00
38718;BME280;24468;52.128;9.278;2023-07-29T02:44:21;99845.06;;;20.15;100.00
38718;BME280;24468;52.128;9.278;2023-07-29T02:46:46;99846.25;;;20.03;100.00
38718;BME280;24468;52.128;9.278;2023-07-29T02:49:12;99842.78;;;20.01;100.00
38718;BME280;24468;52.128;9.278;2023-07-29T02:51:37;99846.25;;;19.93;100.00
38718;BME280;24468;52.128;9.278;2023-07-29T02:54:03;99843.97;;;19.69;100.00
38718;BME280;24468;52.128;9.278;2023-07-29T02:56:28;99835.16;;;19.66;100.00
38718;BME280;24468;52.128;9.278;2023-07-29T02:58:56;99830.97;;;19.62;100.00
38718;BME280;24468;52.128;9.278;2023-07-29T03:01:22;99833.88;;;19.80;100.00
38718;BME280;24468;52.128;9.278;2023-07-29T03:03:48;99823.31;;;19.65;100.00
38718;BME280;24468;52.128;9.278;2023-07-29T03:06:14;99818.91;;;19.84;100.00
38718;BME280;24468;52.128;9.278;2023-07-29T03:08:40;99812.97;;;19.98;100.00
38718;BME280;24468;52.128;9.278;2023-07-29T03:11:14;99808.06;;;20.02;100.00
38718;BME280;24468;52.128;9.278;2023-07-29T03:13:40;99804.75;;;20.08;100.00
38718;BME280;24468;52.128;9.278;2023-07-29T03:16:10;99808.00;;;20.21;100.00
38718;BME280;24468;52.128;9.278;2023-07-29T03:18:36;99813.59;;;20.29;100.00
38718;BME280;24468;52.128;9.278;2023-07-29T03:21:03;99804.09;;;20.33;100.00
38718;BME280;24468;52.128;9.278;2023-07-29T03:23:30;99811.28;;;20.34;100.00
38718;BME280;24468;52.128;9.278;2023-07-29T03:25:56;99798.44;;;19.78;100.00
38718;BME280;24468;52.128;9.278;2023-07-29T03:28:29;99811.09;;;19.79;100.00
38718;BME280;24468;52.128;9.278;2023-07-29T03:30:56;99810.53;;;19.85;100.00
38718;BME280;24468;52.128;9.278;2023-07-29T03:33:22;99808.50;;;19.87;100.00
38718;BME280;24468;52.128;9.278;2023-07-29T03:35:48;99805.91;;;19.66;100.00
38718;BME280;24468;52.128;9.278;2023-07-29T03:38:13;99814.44;;;19.73;100.00
38718;BME280;24468;52.128;9.278;2023-07-29T03:40:39;99810.94;;;19.90;100.00
38718;BME280;24468;52.128;9.278;2023-07-29T03:43:06;99807.38;;;19.80;100.00
38718;BME280;24468;52.128;9.278;2023-07-29T03:45:31;99816.72;;;19.87;100.00
38718;BME280;24468;52.128;9.278;2023-07-29T03:47:57;99812.25;;;19.96;100.00
38718;BME280;24468;52.128;9.278;2023-07-29T03:50:23;99811.38;;;20.05;100.00
38718;BME280;24468;52.128;9.278;2023-07-29T03:52:49;99817.00;;;20.13;100.00
38718;BME280;24468;52.128;9.278;2023-07-29T03:55:15;99813.47;;;20.21;100.00
38718;BME280;24468;52.128;9.278;2023-07-29T03:57:41;99814.50;;;20.20;100.00
38718;BME280;24468;52.128;9.278;2023-07-29T04:00:07;99806.47;;;20.09;100.00
38718;BME280;24468;52.128;9.278;2023-07-29T04:02:32;99816.22;;;20.21;100.00
38718;BME280;24468;52.128;9.278;2023-07-29T04:04:58;99813.47;;;20.31;100.00
38718;BME280;24468;52.128;9.278;2023-07-29T04:07:23;99807.56;;;20.35;100.00
38718;BME280;24468;52.128;9.278;2023-07-29T04:09:49;99796.19;;;20.30;100.00
38718;BME280;24468;52.128;9.278;2023-07-29T04:12:15;99799.09;;;20.19;100.00
38718;BME280;24468;52.128;9.278;2023-07-29T04:14:41;99800.06;;;20.28;100.00
38718;BME280;24468;52.128;9.278;2023-07-29T04:17:07;99798.19;;;20.38;100.00
38718;BME280;24468;52.128;9.278;2023-07-29T04:19:33;99801.06;;;20.36;100.00
38718;BME280;24468;52.128;9.278;2023-07-29T04:21:58;99803.50;;;20.39;100.00
38718;BME280;24468;52.128;9.278;2023-07-29T04:24:24;99807.69;;;20.43;100.00
38718;BME280;24468;52.128;9.278;2023-07-29T04:26:50;99810.84;;;20.49;100.00
38718;BME280;24468;52.128;9.278;2023-07-29T04:29:15;99814.72;;;20.56;100.00
38718;BME280;24468;52.128;9.278;2023-07-29T04:31:41;99806.91;;;20.61;100.00
38718;BME280;24468;52.128;9.278;2023-07-29T04:34:06;99812.09;;;20.64;100.00
38718;BME280;24468;52.128;9.278;2023-07-29T04:36:32;99803.72;;;20.65;100.00
38718;BME280;24468;52.128;9.278;2023-07-29T04:38:58;99797.84;;;20.60;100.00
38718;BME280;24468;52.128;9.278;2023-07-29T04:41:23;99808.31;;;20.65;100.00
38718;BME280;24468;52.128;9.278;2023-07-29T04:43:49;99794.03;;;20.71;100.00
38718;BME280;24468;52.128;9.278;2023-07-29T04:46:15;99789.25;;;20.73;100.00
38718;BME280;24468;52.128;9.278;2023-07-29T04:48:41;99783.75;;;20.73;100.00
38718;BME280;24468;52.128;9.278;2023-07-29T04:51:06;99780.34;;;20.71;100.00
38718;BME280;24468;52.128;9.278;2023-07-29T04:53:32;99789.56;;;20.70;100.00
38718;BME280;24468;52.128;9.278;2023-07-29T04:55:58;99774.00;;;20.71;100.00
38718;BME280;24468;52.128;9.278;2023-07-29T04:58:23;99776.03;;;20.69;100.00
38718;BME280;24468;52.128;9.278;2023-07-29T05:00:49;99769.94;;;20.65;100.00
38718;BME280;24468;52.128;9.278;2023-07-29T05:03:15;99774.88;;;20.61;100.00
38718;BME280;24468;52.128;9.278;2023-07-29T05:05:40;99764.56;;;20.73;100.00
38718;BME280;24468;52.128;9.278;2023-07-29T05:08:06;99769.91;;;20.75;100.00
38718;BME280;24468;52.128;9.278;2023-07-29T05:10:31;99760.13;;;20.72;100.00
38718;BME280;24468;52.128;9.278;2023-07-29T05:12:57;99772.66;;;20.75;100.00
38718;BME280;24468;52.128;9.278;2023-07-29T05:15:22;99782.47;;;20.77;100.00
38718;BME280;24468;52.128;9.278;2023-07-29T05:17:48;99786.13;;;20.68;100.00
38718;BME280;24468;52.128;9.278;2023-07-29T05:20:13;99779.19;;;20.64;100.00
38718;BME280;24468;52.128;9.278;2023-07-29T05:22:39;99769.25;;;20.63;100.00
38718;BME280;24468;52.128;9.278;2023-07-29T05:25:05;99762.94;;;20.62;100.00
38718;BME280;24468;52.128;9.278;2023-07-29T05:27:31;99770.38;;;20.70;100.00
38718;BME280;24468;52.128;9.278;2023-07-29T05:29:57;99772.53;;;20.76;100.00
38718;BME280;24468;52.128;9.278;2023-07-29T05:32:22;99771.50;;;20.77;100.00
38718;BME280;24468;52.128;9.278;2023-07-29T05:34:48;99769.19;;;20.73;100.00
38718;BME280;24468;52.128;9.278;2023-07-29T05:37:13;99770.78;;;20.75;100.00
38718;BME280;24468;52.128;9.278;2023-07-29T05:39:39;99775.94;;;20.78;100.00
38718;BME280;24468;52.128;9.278;2023-07-29T05:42:05;99769.59;;;20.78;100.00
38718;BME280;24468;52.128;9.278;2023-07-29T05:44:31;99772.41;;;20.68;100.00
38718;BME280;24468;52.128;9.278;2023-07-29T05:46:57;99759.09;;;20.73;100.00
38718;BME280;24468;52.128;9.278;2023-07-29T05:49:23;99762.09;;;20.80;100.00
38718;BME280;24468;52.128;9.278;2023-07-29T05:51:48;99761.75;;;20.93;100.00
38718;BME280;24468;52.128;9.278;2023-07-29T05:54:14;99755.72;;;21.07;100.00
38718;BME280;24468;52.128;9.278;2023-07-29T05:56:39;99751.66;;;21.11;100.00
38718;BME280;24468;52.128;9.278;2023-07-29T05:59:05;99751.50;;;21.13;100.00
38718;BME280;24468;52.128;9.278;2023-07-29T06:01:30;99750.66;;;21.12;100.00
38718;BME280;24468;52.128;9.278;2023-07-29T06:03:56;99753.56;;;21.28;100.00
38718;BME280;24468;52.128;9.278;2023-07-29T06:06:21;99762.09;;;21.25;100.00
38718;BME280;24468;52.128;9.278;2023-07-29T06:08:49;99760.31;;;21.34;100.00
38718;BME280;24468;52.128;9.278;2023-07-29T06:11:15;99757.41;;;21.18;100.00
38718;BME280;24468;52.128;9.278;2023-07-29T06:13:40;99755.66;;;20.99;100.00
38718;BME280;24468;52.128;9.278;2023-07-29T06:16:06;99760.06;;;21.27;100.00
38718;BME280;24468;52.128;9.278;2023-07-29T06:18:31;99762.00;;;21.35;100.00
38718;BME280;24468;52.128;9.278;2023-07-29T06:20:57;99762.88;;;21.36;100.00
38718;BME280;24468;52.128;9.278;2023-07-29T06:23:22;99769.38;;;21.17;100.00
38718;BME280;24468;52.128;9.278;2023-07-29T06:25:48;99770.25;;;21.17;100.00
38718;BME280;24468;52.128;9.278;2023-07-29T06:28:13;99771.34;;;21.24;100.00
38718;BME280;24468;52.128;9.278;2023-07-29T06:30:40;99772.25;;;21.43;100.00
38718;BME280;24468;52.128;9.278;2023-07-29T06:33:06;99766.06;;;21.59;100.00
38718;BME280;24468;52.128;9.278;2023-07-29T06:35:31;99777.84;;;21.77;100.00
38718;BME280;24468;52.128;9.278;2023-07-29T06:37:57;99781.31;;;21.79;100.00
38718;BME280;24468;52.128;9.278;2023-07-29T06:40:22;99797.81;;;21.61;100.00
38718;BME280;24468;52.128;9.278;2023-07-29T06:42:48;99790.91;;;21.75;100.00
38718;BME280;24468;52.128;9.278;2023-07-29T06:45:13;99783.28;;;21.87;100.00
38718;BME280;24468;52.128;9.278;2023-07-29T06:47:40;99785.38;;;21.93;100.00
38718;BME280;24468;52.128;9.278;2023-07-29T06:50:06;99774.19;;;21.86;100.00
38718;BME280;24468;52.128;9.278;2023-07-29T06:52:32;99769.59;;;21.95;100.00
38718;BME280;24468;52.128;9.278;2023-07-29T06:54:58;99768.63;;;22.04;100.00
38718;BME280;24468;52.128;9.278;2023-07-29T06:57:23;99764.22;;;22.11;100.00
38718;BME280;24468;52.128;9.278;2023-07-29T06:59:49;99766.59;;;22.24;100.00
38718;BME280;24468;52.128;9.278;2023-07-29T07:02:14;99765.13;;;22.38;100.00
38718;BME280;24468;52.128;9.278;2023-07-29T07:04:40;99764.16;;;22.55;100.00
38718;BME280;24468;52.128;9.278;2023-07-29T07:07:05;99774.53;;;22.70;100.00
38718;BME280;24468;52.128;9.278;2023-07-29T07:09:31;99770.47;;;22.82;100.00
38718;BME280;24468;52.128;9.278;2023-07-29T07:11:56;99763.78;;;22.84;100.00
38718;BME280;24468;52.128;9.278;2023-07-29T07:14:22;99759.91;;;23.03;100.00
38718;BME280;24468;52.128;9.278;2023-07-29T07:16:47;99763.34;;;23.05;100.00
38718;BME280;24468;52.128;9.278;2023-07-29T07:19:13;99749.66;;;23.30;100.00
38718;BME280;24468;52.128;9.278;2023-07-29T07:21:38;99735.53;;;23.25;100.00
38718;BME280;24468;52.128;9.278;2023-07-29T07:24:04;99734.72;;;23.41;100.00
38718;BME280;24468;52.128;9.278;2023-07-29T07:26:30;99733.66;;;23.42;100.00
38718;BME280;24468;52.128;9.278;2023-07-29T07:28:55;99744.50;;;23.43;100.00
38718;BME280;24468;52.128;9.278;2023-07-29T07:31:21;99754.81;;;23.41;100.00
38718;BME280;24468;52.128;9.278;2023-07-29T07:33:47;99761.72;;;23.45;100.00
38718;BME280;24468;52.128;9.278;2023-07-29T07:36:12;99757.56;;;23.25;100.00
38718;BME280;24468;52.128;9.278;2023-07-29T07:38:38;99768.25;;;22.85;100.00
38718;BME280;24468;52.128;9.278;2023-07-29T07:41:03;99760.69;;;23.38;100.00
38718;BME280;24468;52.128;9.278;2023-07-29T07:43:29;99748.47;;;23.49;100.00
38718;BME280;24468;52.128;9.278;2023-07-29T07:46:02;99762.22;;;23.33;100.00
38718;BME280;24468;52.128;9.278;2023-07-29T07:48:28;99763.75;;;23.19;100.00
38718;BME280;24468;52.128;9.278;2023-07-29T07:50:54;99771.81;;;23.12;100.00
38718;BME280;24468;52.128;9.278;2023-07-29T07:53:19;99774.06;;;22.74;100.00
38718;BME280;24468;52.128;9.278;2023-07-29T07:55:47;99780.34;;;22.58;100.00
38718;BME280;24468;52.128;9.278;2023-07-29T07:58:13;99771.03;;;22.59;100.00
38718;BME280;24468;52.128;9.278;2023-07-29T08:00:38;99769.53;;;22.31;100.00
38718;BME280;24468;52.128;9.278;2023-07-29T08:03:04;99775.81;;;21.97;100.00
38718;BME280;24468;52.128;9.278;2023-07-29T08:05:29;99768.34;;;22.15;100.00
38718;BME280;24468;52.128;9.278;2023-07-29T08:07:56;99763.72;;;21.90;100.00
38718;BME280;24468;52.128;9.278;2023-07-29T08:10:22;99760.00;;;21.99;100.00
38718;BME280;24468;52.128;9.278;2023-07-29T08:12:48;99765.13;;;21.94;100.00
38718;BME280;24468;52.128;9.278;2023-07-29T08:15:13;99759.13;;;22.16;100.00
38718;BME280;24468;52.128;9.278;2023-07-29T08:17:39;99762.88;;;22.15;100.00
38718;BME280;24468;52.128;9.278;2023-07-29T08:20:05;99749.97;;;22.34;100.00
38718;BME280;24468;52.128;9.278;2023-07-29T08:22:30;99757.41;;;22.84;100.00
38718;BME280;24468;52.128;9.278;2023-07-29T08:24:56;99764.25;;;22.72;100.00
38718;BME280;24468;52.128;9.278;2023-07-29T08:27:22;99755.81;;;22.73;100.00
38718;BME280;24468;52.128;9.278;2023-07-29T08:29:47;99757.03;;;22.36;100.00
38718;BME280;24468;52.128;9.278;2023-07-29T08:32:13;99759.41;;;22.31;100.00
38718;BME280;24468;52.128;9.278;2023-07-29T08:34:38;99769.63;;;22.47;100.00
38718;BME280;24468;52.128;9.278;2023-07-29T08:37:04;99769.06;;;22.17;100.00
38718;BME280;24468;52.128;9.278;2023-07-29T08:39:29;99776.72;;;22.06;100.00
38718;BME280;24468;52.128;9.278;2023-07-29T08:42:08;99779.81;;;22.29;100.00
38718;BME280;24468;52.128;9.278;2023-07-29T08:44:42;99779.88;;;22.37;100.00
38718;BME280;24468;52.128;9.278;2023-07-29T08:47:08;99785.44;;;22.79;100.00
38718;BME280;24468;52.128;9.278;2023-07-29T08:49:34;99775.47;;;23.37;100.00
38718;BME280;24468;52.128;9.278;2023-07-29T08:52:01;99773.53;;;23.13;100.00
38718;BME280;24468;52.128;9.278;2023-07-29T08:54:26;99774.06;;;23.25;100.00
38718;BME280;24468;52.128;9.278;2023-07-29T08:56:52;99775.41;;;23.04;100.00
38718;BME280;24468;52.128;9.278;2023-07-29T08:59:19;99771.97;;;23.11;100.00
38718;BME280;24468;52.128;9.278;2023-07-29T09:01:44;99768.22;;;23.28;100.00
38718;BME280;24468;52.128;9.278;2023-07-29T09:04:10;99769.81;;;23.55;100.00
38718;BME280;24468;52.128;9.278;2023-07-29T09:06:36;99757.41;;;23.35;100.00
38718;BME280;24468;52.128;9.278;2023-07-29T09:09:03;99753.16;;;23.89;100.00
38718;BME280;24468;52.128;9.278;2023-07-29T09:11:29;99754.38;;;23.95;100.00
38718;BME280;24468;52.128;9.278;2023-07-29T09:13:55;99754.53;;;23.77;100.00
38718;BME280;24468;52.128;9.278;2023-07-29T09:16:21;99764.19;;;23.81;100.00
38718;BME280;24468;52.128;9.278;2023-07-29T09:18:51;99758.81;;;24.04;100.00
38718;BME280;24468;52.128;9.278;2023-07-29T09:21:22;99746.69;;;24.30;100.00
38718;BME280;24468;52.128;9.278;2023-07-29T09:23:50;99740.50;;;24.36;100.00
38718;BME280;24468;52.128;9.278;2023-07-29T09:26:23;99752.91;;;24.48;100.00
38718;BME280;24468;52.128;9.278;2023-07-29T09:28:53;99750.50;;;23.30;100.00
38718;BME280;24468;52.128;9.278;2023-07-29T09:31:21;99750.16;;;23.25;100.00
38718;BME280;24468;52.128;9.278;2023-07-29T09:33:47;99750.50;;;23.22;100.00
38718;BME280;24468;52.128;9.278;2023-07-29T09:36:13;99746.16;;;23.03;100.00
38718;BME280;24468;52.128;9.278;2023-07-29T09:38:39;99738.75;;;22.61;100.00
38718;BME280;24468;52.128;9.278;2023-07-29T09:41:05;99757.50;;;23.00;100.00
38718;BME280;24468;52.128;9.278;2023-07-29T09:43:33;99759.25;;;23.10;100.00
38718;BME280;24468;52.128;9.278;2023-07-29T09:46:04;99733.50;;;23.60;100.00
38718;BME280;24468;52.128;9.278;2023-07-29T09:48:34;99759.69;;;23.96;100.00
38718;BME280;24468;52.128;9.278;2023-07-29T09:51:10;99741.16;;;24.54;100.00
38718;BME280;24468;52.128;9.278;2023-07-29T09:53:44;99738.09;;;24.41;100.00
38718;BME280;24468;52.128;9.278;2023-07-29T09:56:10;99745.88;;;24.13;100.00
38718;BME280;24468;52.128;9.278;2023-07-29T09:58:36;99740.25;;;23.82;100.00
38718;BME280;24468;52.128;9.278;2023-07-29T10:01:05;99755.88;;;24.22;100.00
38718;BME280;24468;52.128;9.278;2023-07-29T10:03:31;99748.81;;;24.19;100.00
38718;BME280;24468;52.128;9.278;2023-07-29T10:06:04;99749.66;;;24.28;100.00
38718;BME280;24468;52.128;9.278;2023-07-29T10:08:30;99738.38;;;24.54;100.00
38718;BME280;24468;52.128;9.278;2023-07-29T10:11:10;99743.47;;;24.10;100.00
38718;BME280;24468;52.128;9.278;2023-07-29T10:13:37;99744.63;;;24.48;100.00
38718;BME280;24468;52.128;9.278;2023-07-29T10:16:04;99741.59;;;24.74;100.00
38718;BME280;24468;52.128;9.278;2023-07-29T10:18:32;99727.63;;;24.12;100.00
38718;BME280;24468;52.128;9.278;2023-07-29T10:21:00;99728.00;;;24.09;100.00
38718;BME280;24468;52.128;9.278;2023-07-29T10:23:30;99720.28;;;23.71;100.00
38718;BME280;24468;52.128;9.278;2023-07-29T10:26:10;99734.22;;;24.03;100.00
38718;BME280;24468;52.128;9.278;2023-07-29T10:28:40;99730.94;;;23.99;100.00
38718;BME280;24468;52.128;9.278;2023-07-29T10:31:07;99729.97;;;24.48;100.00
38718;BME280;24468;52.128;9.278;2023-07-29T10:33:34;99735.00;;;24.36;100.00
38718;BME280;24468;52.128;9.278;2023-07-29T10:36:00;99739.38;;;23.89;100.00
38718;BME280;24468;52.128;9.278;2023-07-29T10:38:26;99723.47;;;24.16;100.00
38718;BME280;24468;52.128;9.278;2023-07-29T10:40:56;99723.88;;;23.88;100.00
38718;BME280;24468;52.128;9.278;2023-07-29T10:45:57;99729.00;;;24.08;97.46
38718;BME280;24468;52.128;9.278;2023-07-29T10:54:03;99720.47;;;23.86;94.90
38718;BME280;24468;52.128;9.278;2023-07-29T10:56:36;99731.78;;;23.91;97.51
38718;BME280;24468;52.128;9.278;2023-07-29T11:01:40;99732.09;;;24.13;94.26
38718;BME280;24468;52.128;9.278;2023-07-29T11:12:48;99743.06;;;24.46;84.08
38718;BME280;24468;52.128;9.278;2023-07-29T11:15:27;99743.41;;;24.42;81.93
38718;BME280;24468;52.128;9.278;2023-07-29T11:17:57;99727.34;;;24.54;83.08
38718;BME280;24468;52.128;9.278;2023-07-29T11:20:25;99747.53;;;24.63;80.71
38718;BME280;24468;52.128;9.278;2023-07-29T11:22:53;99755.16;;;24.36;82.08
38718;BME280;24468;52.128;9.278;2023-07-29T11:25:18;99741.44;;;24.68;81.30
38718;BME280;24468;52.128;9.278;2023-07-29T11:27:45;99750.88;;;24.81;81.81
38718;BME280;24468;52.128;9.278;2023-07-29T11:30:13;99741.41;;;25.15;78.43
38718;BME280;24468;52.128;9.278;2023-07-29T11:32:41;99759.69;;;25.39;76.95
38718;BME280;24468;52.128;9.278;2023-07-29T11:35:08;99765.84;;;24.87;78.58
38718;BME280;24468;52.128;9.278;2023-07-29T11:37:36;99756.53;;;25.50;77.33
38718;BME280;24468;52.128;9.278;2023-07-29T11:40:02;99759.88;;;25.92;76.07
38718;BME280;24468;52.128;9.278;2023-07-29T11:42:28;99746.78;;;24.69;74.52
38718;BME280;24468;52.128;9.278;2023-07-29T11:44:57;99768.13;;;25.15;74.52
38718;BME280;24468;52.128;9.278;2023-07-29T11:47:23;99756.63;;;25.80;74.19
38718;BME280;24468;52.128;9.278;2023-07-29T11:49:49;99752.47;;;25.15;73.01
38718;BME280;24468;52.128;9.278;2023-07-29T11:52:15;99754.91;;;25.02;73.45
38718;BME280;24468;52.128;9.278;2023-07-29T11:54:44;99759.25;;;24.96;70.85
38718;BME280;24468;52.128;9.278;2023-07-29T11:57:10;99746.59;;;25.64;72.33
38718;BME280;24468;52.128;9.278;2023-07-29T11:59:36;99744.69;;;25.88;70.38
38718;BME280;24468;52.128;9.278;2023-07-29T12:02:10;99742.03;;;25.94;70.36
38718;BME280;24468;52.128;9.278;2023-07-29T12:04:38;99759.38;;;25.03;73.62
38718;BME280;24468;52.128;9.278;2023-07-29T12:07:04;99739.03;;;25.35;72.03
38718;BME280;24468;52.128;9.278;2023-07-29T12:09:30;99743.59;;;24.89;71.33
38718;BME280;24468;52.128;9.278;2023-07-29T12:11:56;99746.97;;;25.07;74.48
38718;BME280;24468;52.128;9.278;2023-07-29T12:14:22;99741.75;;;26.04;72.43
38718;BME280;24468;52.128;9.278;2023-07-29T12:16:51;99735.56;;;26.02;68.32
38718;BME280;24468;52.128;9.278;2023-07-29T12:19:17;99731.34;;;25.68;69.00
38718;BME280;24468;52.128;9.278;2023-07-29T12:21:44;99753.41;;;25.54;69.19
38718;BME280;24468;52.128;9.278;2023-07-29T12:24:12;99749.69;;;25.61;68.53
38718;BME280;24468;52.128;9.278;2023-07-29T12:26:37;99745.34;;;25.44;73.18
38718;BME280;24468;52.128;9.278;2023-07-29T12:29:18;99754.22;;;25.31;72.34
38718;BME280;24468;52.128;9.278;2023-07-29T12:31:48;99741.66;;;25.28;74.99
38718;BME280;24468;52.128;9.278;2023-07-29T12:34:20;99735.41;;;25.81;72.58
38718;BME280;24468;52.128;9.278;2023-07-29T12:36:50;99729.00;;;26.03;74.26
38718;BME280;24468;52.128;9.278;2023-07-29T12:39:28;99725.59;;;25.55;70.48
38718;BME280;24468;52.128;9.278;2023-07-29T12:41:55;99728.41;;;25.93;70.01
38718;BME280;24468;52.128;9.278;2023-07-29T12:44:29;99725.22;;;25.81;71.88
38718;BME280;24468;52.128;9.278;2023-07-29T12:46:55;99738.31;;;25.64;73.09
38718;BME280;24468;52.128;9.278;2023-07-29T12:49:20;99737.94;;;25.67;74.04
38718;BME280;24468;52.128;9.278;2023-07-29T12:51:46;99734.56;;;25.57;72.95
38718;BME280;24468;52.128;9.278;2023-07-29T12:54:11;99726.44;;;25.79;73.22
38718;BME280;24468;52.128;9.278;2023-07-29T12:56:37;99718.91;;;26.40;72.13
38718;BME280;24468;52.128;9.278;2023-07-29T12:59:02;99707.38;;;26.81;68.34
38718;BME280;24468;52.128;9.278;2023-07-29T13:01:29;99710.00;;;26.53;70.05
38718;BME280;24468;52.128;9.278;2023-07-29T13:03:54;99733.22;;;26.29;68.23
38718;BME280;24468;52.128;9.278;2023-07-29T13:06:21;99728.22;;;25.94;70.54
38718;BME280;24468;52.128;9.278;2023-07-29T13:08:47;99721.34;;;26.58;68.46
38718;BME280;24468;52.128;9.278;2023-07-29T13:11:17;99720.25;;;26.29;69.42
38718;BME280;24468;52.128;9.278;2023-07-29T13:13:42;99727.69;;;26.14;71.43
38718;BME280;24468;52.128;9.278;2023-07-29T13:16:09;99720.47;;;25.67;74.37
38718;BME280;24468;52.128;9.278;2023-07-29T13:18:35;99729.03;;;25.57;74.80
38718;BME280;24468;52.128;9.278;2023-07-29T13:21:00;99731.25;;;25.39;75.37